sensor_id;sensor_type;location;lat;lon;timestamp;P1;durP1;ratioP1;P2;durP2;ratioP2
68432;SDS011;55412;51.350;17.056;2023-03-04T00:01:59;12.02;;;3.00;;
68432;SDS011;55412;51.350;17.056;2023-03-04T00:04:25;14.52;;;4.63;;
68432;SDS011;55412;51.350;17.056;2023-03-04T00:06:51;9.75;;;2.70;;
68432;SDS011;55412;51.350;17.056;2023-03-04T00:09:17;15.10;;;4.83;;
68432;SDS011;55412;51.350;17.056;2023-03-04T00:11:43;15.70;;;6.65;;
68432;SDS011;55412;51.350;17.056;2023-03-04T00:14:09;17.45;;;5.72;;
68432;SDS011;55412;51.350;17.056;2023-03-04T00:16:35;12.98;;;3.88;;
68432;SDS011;55412;51.350;17.056;2023-03-04T00:19:01;18.87;;;4.60;;
68432;SDS011;55412;51.350;17.056;2023-03-04T00:21:29;10.75;;;3.03;;
68432;SDS011;55412;51.350;17.056;2023-03-04T00:23:55;8.65;;;2.72;;
68432;SDS011;55412;51.350;17.056;2023-03-04T00:26:21;9.57;;;3.13;;
68432;SDS011;55412;51.350;17.056;2023-03-04T00:28:47;13.40;;;5.15;;
68432;SDS011;55412;51.350;17.056;2023-03-04T00:31:13;13.80;;;4.27;;
68432;SDS011;55412;51.350;17.056;2023-03-04T00:33:39;11.65;;;4.88;;
68432;SDS011;55412;51.350;17.056;2023-03-04T00:36:07;11.85;;;3.65;;
68432;SDS011;55412;51.350;17.056;2023-03-04T00:38:34;17.42;;;5.28;;
68432;SDS011;55412;51.350;17.056;2023-03-04T00:41:01;19.15;;;5.53;;
68432;SDS011;55412;51.350;17.056;2023-03-04T00:43:27;16.13;;;5.57;;
68432;SDS011;55412;51.350;17.056;2023-03-04T00:45:54;13.13;;;3.88;;
68432;SDS011;55412;51.350;17.056;2023-03-04T00:48:20;11.63;;;3.42;;
68432;SDS011;55412;51.350;17.056;2023-03-04T00:50:46;18.27;;;5.38;;
68432;SDS011;55412;51.350;17.056;2023-03-04T00:53:13;17.85;;;5.53;;
68432;SDS011;55412;51.350;17.056;2023-03-04T00:55:39;20.97;;;5.40;;
68432;SDS011;55412;51.350;17.056;2023-03-04T00:58:05;15.57;;;5.30;;
68432;SDS011;55412;51.350;17.056;2023-03-04T01:00:31;16.52;;;5.05;;
68432;SDS011;55412;51.350;17.056;2023-03-04T01:02:58;17.55;;;5.00;;
68432;SDS011;55412;51.350;17.056;2023-03-04T01:05:24;15.32;;;6.20;;
68432;SDS011;55412;51.350;17.056;2023-03-04T01:07:50;15.40;;;4.77;;
68432;SDS011;55412;51.350;17.056;2023-03-04T01:10:16;15.30;;;4.90;;
68432;SDS011;55412;51.350;17.056;2023-03-04T01:12:43;16.02;;;5.03;;
68432;SDS011;55412;51.350;17.056;2023-03-04T01:15:10;12.32;;;4.07;;
68432;SDS011;55412;51.350;17.056;2023-03-04T01:17:38;15.45;;;4.47;;
68432;SDS011;55412;51.350;17.056;2023-03-04T01:20:05;17.37;;;5.10;;
68432;SDS011;55412;51.350;17.056;2023-03-04T01:22:33;17.55;;;5.65;;
68432;SDS011;55412;51.350;17.056;2023-03-04T01:24:59;16.90;;;5.72;;
68432;SDS011;55412;51.350;17.056;2023-03-04T01:27:25;11.77;;;3.75;;
68432;SDS011;55412;51.350;17.056;2023-03-04T01:29:51;12.35;;;4.28;;
68432;SDS011;55412;51.350;17.056;2023-03-04T01:32:17;18.23;;;5.10;;
68432;SDS011;55412;51.350;17.056;2023-03-04T01:34:43;15.07;;;5.30;;
68432;SDS011;55412;51.350;17.056;2023-03-04T01:37:09;10.18;;;3.22;;
68432;SDS011;55412;51.350;17.056;2023-03-04T01:39:37;18.42;;;5.68;;
68432;SDS011;55412;51.350;17.056;2023-03-04T01:42:03;15.13;;;5.15;;
68432;SDS011;55412;51.350;17.056;2023-03-04T01:44:30;15.30;;;4.80;;
68432;SDS011;55412;51.350;17.056;2023-03-04T01:46:57;16.27;;;5.25;;
68432;SDS011;55412;51.350;17.056;2023-03-04T01:49:23;14.98;;;4.63;;
68432;SDS011;55412;51.350;17.056;2023-03-04T01:51:50;19.92;;;4.82;;
68432;SDS011;55412;51.350;17.056;2023-03-04T01:54:19;15.57;;;4.88;;
68432;SDS011;55412;51.350;17.056;2023-03-04T01:56:47;13.40;;;4.77;;
68432;SDS011;55412;51.350;17.056;2023-03-04T02:01:46;16.10;;;5.60;;
68432;SDS011;55412;51.350;17.056;2023-03-04T02:04:38;15.68;;;4.88;;
68432;SDS011;55412;51.350;17.056;2023-03-04T02:07:06;16.25;;;5.15;;
68432;SDS011;55412;51.350;17.056;2023-03-04T02:09:33;19.47;;;5.97;;
68432;SDS011;55412;51.350;17.056;2023-03-04T02:12:00;16.40;;;6.93;;
68432;SDS011;55412;51.350;17.056;2023-03-04T02:14:26;10.07;;;3.72;;
68432;SDS011;55412;51.350;17.056;2023-03-04T02:16:53;21.40;;;6.93;;
68432;SDS011;55412;51.350;17.056;2023-03-04T02:19:37;11.20;;;4.55;;
68432;SDS011;55412;51.350;17.056;2023-03-04T02:22:12;17.30;;;5.33;;
68432;SDS011;55412;51.350;17.056;2023-03-04T02:24:39;11.35;;;3.60;;
68432;SDS011;55412;51.350;17.056;2023-03-04T02:27:40;14.68;;;3.65;;
68432;SDS011;55412;51.350;17.056;2023-03-04T02:30:06;19.08;;;4.28;;
68432;SDS011;55412;51.350;17.056;2023-03-04T02:32:35;12.25;;;4.63;;
68432;SDS011;55412;51.350;17.056;2023-03-04T02:35:01;14.47;;;6.27;;
68432;SDS011;55412;51.350;17.056;2023-03-04T02:37:29;18.05;;;6.63;;
68432;SDS011;55412;51.350;17.056;2023-03-04T02:39:55;11.70;;;4.20;;
68432;SDS011;55412;51.350;17.056;2023-03-04T02:42:21;9.00;;;3.30;;
68432;SDS011;55412;51.350;17.056;2023-03-04T02:44:47;9.70;;;4.03;;
68432;SDS011;55412;51.350;17.056;2023-03-04T02:47:15;13.60;;;4.97;;
68432;SDS011;55412;51.350;17.056;2023-03-04T02:49:42;9.20;;;3.92;;
68432;SDS011;55412;51.350;17.056;2023-03-04T02:52:12;14.23;;;4.95;;
68432;SDS011;55412;51.350;17.056;2023-03-04T02:54:43;12.27;;;4.10;;
68432;SDS011;55412;51.350;17.056;2023-03-04T02:57:09;14.40;;;4.03;;
68432;SDS011;55412;51.350;17.056;2023-03-04T02:59:37;13.93;;;4.17;;
68432;SDS011;55412;51.350;17.056;2023-03-04T03:02:05;11.38;;;4.25;;
68432;SDS011;55412;51.350;17.056;2023-03-04T03:04:32;11.00;;;4.38;;
68432;SDS011;55412;51.350;17.056;2023-03-04T03:07:01;11.30;;;4.05;;
68432;SDS011;55412;51.350;17.056;2023-03-04T03:09:27;16.23;;;4.63;;
68432;SDS011;55412;51.350;17.056;2023-03-04T03:11:53;11.33;;;3.87;;
68432;SDS011;55412;51.350;17.056;2023-03-04T03:14:19;11.57;;;4.15;;
68432;SDS011;55412;51.350;17.056;2023-03-04T03:16:45;16.80;;;6.18;;
68432;SDS011;55412;51.350;17.056;2023-03-04T03:19:11;13.40;;;4.10;;
68432;SDS011;55412;51.350;17.056;2023-03-04T03:21:37;9.38;;;3.92;;
68432;SDS011;55412;51.350;17.056;2023-03-04T03:24:03;14.93;;;4.23;;
68432;SDS011;55412;51.350;17.056;2023-03-04T03:26:30;13.50;;;4.95;;
68432;SDS011;55412;51.350;17.056;2023-03-04T03:28:55;14.68;;;5.30;;
68432;SDS011;55412;51.350;17.056;2023-03-04T03:31:21;13.73;;;5.35;;
68432;SDS011;55412;51.350;17.056;2023-03-04T03:33:47;15.80;;;5.17;;
68432;SDS011;55412;51.350;17.056;2023-03-04T03:36:13;18.37;;;5.37;;
68432;SDS011;55412;51.350;17.056;2023-03-04T03:38:39;11.23;;;5.00;;
68432;SDS011;55412;51.350;17.056;2023-03-04T03:41:05;9.10;;;3.20;;
68432;SDS011;55412;51.350;17.056;2023-03-04T03:43:32;12.90;;;7.10;;
68432;SDS011;55412;51.350;17.056;2023-03-04T03:45:58;13.93;;;5.40;;
68432;SDS011;55412;51.350;17.056;2023-03-04T03:48:25;10.17;;;3.93;;
68432;SDS011;55412;51.350;17.056;2023-03-04T03:50:51;12.23;;;4.60;;
68432;SDS011;55412;51.350;17.056;2023-03-04T03:53:17;15.82;;;4.53;;
68432;SDS011;55412;51.350;17.056;2023-03-04T03:55:43;49.60;;;44.30;;
68432;SDS011;55412;51.350;17.056;2023-03-04T03:58:09;46.70;;;41.97;;
68432;SDS011;55412;51.350;17.056;2023-03-04T04:00:35;24.85;;;22.17;;
68432;SDS011;55412;51.350;17.056;2023-03-04T04:03:01;58.05;;;51.88;;
68432;SDS011;55412;51.350;17.056;2023-03-04T04:05:27;63.50;;;56.58;;
68432;SDS011;55412;51.350;17.056;2023-03-04T04:07:53;39.47;;;35.30;;
68432;SDS011;55412;51.350;17.056;2023-03-04T04:10:19;15.40;;;8.20;;
68432;SDS011;55412;51.350;17.056;2023-03-04T04:12:45;42.17;;;37.85;;
68432;SDS011;55412;51.350;17.056;2023-03-04T04:15:12;62.67;;;55.83;;
68432;SDS011;55412;51.350;17.056;2023-03-04T04:17:38;91.85;;;82.38;;
68432;SDS011;55412;51.350;17.056;2023-03-04T04:20:05;111.13;;;99.30;;
68432;SDS011;55412;51.350;17.056;2023-03-04T04:22:32;99.97;;;88.03;;
68432;SDS011;55412;51.350;17.056;2023-03-04T04:24:58;137.98;;;122.82;;
68432;SDS011;55412;51.350;17.056;2023-03-04T04:27:24;130.27;;;110.13;;
68432;SDS011;55412;51.350;17.056;2023-03-04T04:29:50;113.90;;;99.65;;
68432;SDS011;55412;51.350;17.056;2023-03-04T04:32:16;21.27;;;8.40;;
68432;SDS011;55412;51.350;17.056;2023-03-04T04:34:42;15.00;;;5.33;;
68432;SDS011;55412;51.350;17.056;2023-03-04T04:37:08;16.35;;;5.68;;
68432;SDS011;55412;51.350;17.056;2023-03-04T04:39:34;15.40;;;5.68;;
68432;SDS011;55412;51.350;17.056;2023-03-04T04:42:00;19.38;;;6.57;;
68432;SDS011;55412;51.350;17.056;2023-03-04T04:44:26;20.08;;;5.55;;
68432;SDS011;55412;51.350;17.056;2023-03-04T04:46:52;14.17;;;5.23;;
68432;SDS011;55412;51.350;17.056;2023-03-04T04:49:18;23.80;;;6.43;;
68432;SDS011;55412;51.350;17.056;2023-03-04T04:51:44;11.57;;;3.92;;
68432;SDS011;55412;51.350;17.056;2023-03-04T04:54:12;15.75;;;5.30;;
68432;SDS011;55412;51.350;17.056;2023-03-04T04:56:38;17.17;;;5.50;;
68432;SDS011;55412;51.350;17.056;2023-03-04T04:59:05;14.87;;;5.57;;
68432;SDS011;55412;51.350;17.056;2023-03-04T05:01:32;12.77;;;4.22;;
68432;SDS011;55412;51.350;17.056;2023-03-04T05:03:58;14.50;;;6.53;;
68432;SDS011;55412;51.350;17.056;2023-03-04T05:06:25;15.45;;;5.63;;
68432;SDS011;55412;51.350;17.056;2023-03-04T05:08:51;15.85;;;5.03;;
68432;SDS011;55412;51.350;17.056;2023-03-04T05:11:18;18.00;;;6.27;;
68432;SDS011;55412;51.350;17.056;2023-03-04T05:13:45;12.38;;;4.00;;
68432;SDS011;55412;51.350;17.056;2023-03-04T05:16:12;12.73;;;4.57;;
68432;SDS011;55412;51.350;17.056;2023-03-04T05:18:38;15.95;;;4.60;;
68432;SDS011;55412;51.350;17.056;2023-03-04T05:21:05;14.93;;;5.55;;
68432;SDS011;55412;51.350;17.056;2023-03-04T05:23:33;14.37;;;5.83;;
68432;SDS011;55412;51.350;17.056;2023-03-04T05:26:02;16.90;;;6.03;;
68432;SDS011;55412;51.350;17.056;2023-03-04T05:28:31;13.38;;;4.97;;
68432;SDS011;55412;51.350;17.056;2023-03-04T05:30:57;12.45;;;4.55;;
68432;SDS011;55412;51.350;17.056;2023-03-04T05:33:24;15.82;;;5.43;;
68432;SDS011;55412;51.350;17.056;2023-03-04T05:35:50;18.07;;;6.07;;
68432;SDS011;55412;51.350;17.056;2023-03-04T05:38:17;16.00;;;5.10;;
68432;SDS011;55412;51.350;17.056;2023-03-04T05:40:44;11.98;;;4.32;;
68432;SDS011;55412;51.350;17.056;2023-03-04T05:43:11;12.77;;;4.40;;
68432;SDS011;55412;51.350;17.056;2023-03-04T05:45:38;17.60;;;5.78;;
68432;SDS011;55412;51.350;17.056;2023-03-04T05:48:05;14.57;;;5.03;;
68432;SDS011;55412;51.350;17.056;2023-03-04T05:50:33;14.43;;;4.65;;
68432;SDS011;55412;51.350;17.056;2023-03-04T05:52:59;14.10;;;5.22;;
68432;SDS011;55412;51.350;17.056;2023-03-04T05:55:25;14.23;;;5.53;;
68432;SDS011;55412;51.350;17.056;2023-03-04T05:57:54;16.30;;;5.30;;
68432;SDS011;55412;51.350;17.056;2023-03-04T06:00:20;16.17;;;5.30;;
68432;SDS011;55412;51.350;17.056;2023-03-04T06:02:46;12.15;;;4.78;;
68432;SDS011;55412;51.350;17.056;2023-03-04T06:05:12;12.48;;;5.25;;
68432;SDS011;55412;51.350;17.056;2023-03-04T06:07:40;13.25;;;4.22;;
68432;SDS011;55412;51.350;17.056;2023-03-04T06:10:07;14.02;;;5.35;;
68432;SDS011;55412;51.350;17.056;2023-03-04T06:12:36;16.00;;;5.20;;
68432;SDS011;55412;51.350;17.056;2023-03-04T06:15:02;10.93;;;3.60;;
68432;SDS011;55412;51.350;17.056;2023-03-04T06:17:30;16.63;;;4.68;;
68432;SDS011;55412;51.350;17.056;2023-03-04T06:19:56;16.88;;;5.50;;
68432;SDS011;55412;51.350;17.056;2023-03-04T06:22:22;15.20;;;4.75;;
68432;SDS011;55412;51.350;17.056;2023-03-04T06:24:48;20.17;;;5.67;;
68432;SDS011;55412;51.350;17.056;2023-03-04T06:27:14;19.45;;;6.07;;
68432;SDS011;55412;51.350;17.056;2023-03-04T06:29:40;16.92;;;6.50;;
68432;SDS011;55412;51.350;17.056;2023-03-04T06:32:07;15.88;;;7.03;;
68432;SDS011;55412;51.350;17.056;2023-03-04T06:34:33;21.53;;;7.57;;
68432;SDS011;55412;51.350;17.056;2023-03-04T06:37:00;18.90;;;7.67;;
68432;SDS011;55412;51.350;17.056;2023-03-04T06:39:26;13.10;;;5.55;;
68432;SDS011;55412;51.350;17.056;2023-03-04T06:41:52;20.05;;;6.95;;
68432;SDS011;55412;51.350;17.056;2023-03-04T06:44:18;18.63;;;7.53;;
68432;SDS011;55412;51.350;17.056;2023-03-04T06:46:44;15.20;;;5.37;;
68432;SDS011;55412;51.350;17.056;2023-03-04T06:49:10;12.95;;;4.22;;
68432;SDS011;55412;51.350;17.056;2023-03-04T06:51:36;14.43;;;5.50;;
68432;SDS011;55412;51.350;17.056;2023-03-04T06:54:02;13.70;;;6.03;;
68432;SDS011;55412;51.350;17.056;2023-03-04T06:56:28;14.63;;;5.97;;
68432;SDS011;55412;51.350;17.056;2023-03-04T06:58:54;16.33;;;6.30;;
68432;SDS011;55412;51.350;17.056;2023-03-04T07:01:21;17.40;;;4.80;;
68432;SDS011;55412;51.350;17.056;2023-03-04T07:03:51;13.93;;;5.40;;
68432;SDS011;55412;51.350;17.056;2023-03-04T07:06:20;15.88;;;5.18;;
68432;SDS011;55412;51.350;17.056;2023-03-04T07:08:49;9.70;;;3.90;;
68432;SDS011;55412;51.350;17.056;2023-03-04T07:11:15;17.83;;;5.33;;
68432;SDS011;55412;51.350;17.056;2023-03-04T07:13:43;13.93;;;5.35;;
68432;SDS011;55412;51.350;17.056;2023-03-04T07:16:11;18.45;;;5.75;;
68432;SDS011;55412;51.350;17.056;2023-03-04T07:18:41;17.88;;;5.20;;
68432;SDS011;55412;51.350;17.056;2023-03-04T07:21:08;16.23;;;5.13;;
68432;SDS011;55412;51.350;17.056;2023-03-04T07:23:34;15.80;;;4.20;;
68432;SDS011;55412;51.350;17.056;2023-03-04T07:26:01;14.95;;;4.28;;
68432;SDS011;55412;51.350;17.056;2023-03-04T07:28:29;11.50;;;4.40;;
68432;SDS011;55412;51.350;17.056;2023-03-04T07:30:55;14.43;;;4.20;;
68432;SDS011;55412;51.350;17.056;2023-03-04T07:33:21;9.57;;;2.38;;
68432;SDS011;55412;51.350;17.056;2023-03-04T07:35:47;13.80;;;3.93;;
68432;SDS011;55412;51.350;17.056;2023-03-04T07:38:13;13.85;;;4.07;;
68432;SDS011;55412;51.350;17.056;2023-03-04T07:40:39;13.90;;;4.45;;
68432;SDS011;55412;51.350;17.056;2023-03-04T07:43:05;13.95;;;4.70;;
68432;SDS011;55412;51.350;17.056;2023-03-04T07:45:31;17.08;;;5.40;;
68432;SDS011;55412;51.350;17.056;2023-03-04T07:47:58;8.77;;;2.90;;
68432;SDS011;55412;51.350;17.056;2023-03-04T07:50:24;10.77;;;4.13;;
68432;SDS011;55412;51.350;17.056;2023-03-04T07:52:50;10.68;;;3.80;;
68432;SDS011;55412;51.350;17.056;2023-03-04T07:55:17;9.27;;;3.53;;
68432;SDS011;55412;51.350;17.056;2023-03-04T07:57:45;12.13;;;4.07;;
68432;SDS011;55412;51.350;17.056;2023-03-04T08:00:13;8.87;;;2.50;;
68432;SDS011;55412;51.350;17.056;2023-03-04T08:02:41;14.93;;;3.35;;
68432;SDS011;55412;51.350;17.056;2023-03-04T08:05:07;13.38;;;4.45;;
68432;SDS011;55412;51.350;17.056;2023-03-04T08:07:35;8.35;;;3.05;;
68432;SDS011;55412;51.350;17.056;2023-03-04T08:10:02;12.93;;;3.50;;
68432;SDS011;55412;51.350;17.056;2023-03-04T08:12:29;8.90;;;2.97;;
68432;SDS011;55412;51.350;17.056;2023-03-04T08:14:55;13.25;;;3.60;;
68432;SDS011;55412;51.350;17.056;2023-03-04T08:17:21;7.97;;;2.58;;
68432;SDS011;55412;51.350;17.056;2023-03-04T08:19:47;9.35;;;2.78;;
68432;SDS011;55412;51.350;17.056;2023-03-04T08:22:13;10.25;;;2.90;;
68432;SDS011;55412;51.350;17.056;2023-03-04T08:24:40;9.83;;;3.50;;
68432;SDS011;55412;51.350;17.056;2023-03-04T08:27:06;9.02;;;3.55;;
68432;SDS011;55412;51.350;17.056;2023-03-04T08:29:32;10.82;;;3.17;;
68432;SDS011;55412;51.350;17.056;2023-03-04T08:31:59;9.52;;;2.53;;
68432;SDS011;55412;51.350;17.056;2023-03-04T08:34:25;8.18;;;2.78;;
68432;SDS011;55412;51.350;17.056;2023-03-04T08:36:53;9.87;;;3.17;;
68432;SDS011;55412;51.350;17.056;2023-03-04T08:39:19;10.65;;;2.67;;
68432;SDS011;55412;51.350;17.056;2023-03-04T08:41:46;10.55;;;3.03;;
68432;SDS011;55412;51.350;17.056;2023-03-04T08:44:13;8.10;;;2.38;;
68432;SDS011;55412;51.350;17.056;2023-03-04T08:46:40;9.05;;;2.80;;
68432;SDS011;55412;51.350;17.056;2023-03-04T08:49:08;8.67;;;3.00;;
68432;SDS011;55412;51.350;17.056;2023-03-04T08:51:37;10.40;;;2.90;;
68432;SDS011;55412;51.350;17.056;2023-03-04T08:54:03;9.95;;;3.15;;
68432;SDS011;55412;51.350;17.056;2023-03-04T08:56:29;12.30;;;3.17;;
68432;SDS011;55412;51.350;17.056;2023-03-04T08:58:56;13.10;;;3.33;;
68432;SDS011;55412;51.350;17.056;2023-03-04T09:01:23;10.13;;;2.90;;
68432;SDS011;55412;51.350;17.056;2023-03-04T09:03:49;9.63;;;3.05;;
68432;SDS011;55412;51.350;17.056;2023-03-04T09:06:16;9.48;;;3.13;;
68432;SDS011;55412;51.350;17.056;2023-03-04T09:08:45;12.20;;;3.63;;
68432;SDS011;55412;51.350;17.056;2023-03-04T09:11:11;10.00;;;3.78;;
68432;SDS011;55412;51.350;17.056;2023-03-04T09:13:38;7.87;;;2.93;;
68432;SDS011;55412;51.350;17.056;2023-03-04T09:16:09;8.55;;;2.83;;
68432;SDS011;55412;51.350;17.056;2023-03-04T09:18:37;8.82;;;2.70;;
68432;SDS011;55412;51.350;17.056;2023-03-04T09:21:06;10.55;;;3.08;;
68432;SDS011;55412;51.350;17.056;2023-03-04T09:23:33;11.70;;;2.83;;
68432;SDS011;55412;51.350;17.056;2023-03-04T09:26:00;8.87;;;2.80;;
68432;SDS011;55412;51.350;17.056;2023-03-04T09:28:26;12.85;;;2.90;;
68432;SDS011;55412;51.350;17.056;2023-03-04T09:30:52;8.10;;;3.10;;
68432;SDS011;55412;51.350;17.056;2023-03-04T09:33:18;10.13;;;3.33;;
68432;SDS011;55412;51.350;17.056;2023-03-04T09:35:44;10.77;;;2.90;;
68432;SDS011;55412;51.350;17.056;2023-03-04T09:38:12;8.33;;;2.30;;
68432;SDS011;55412;51.350;17.056;2023-03-04T09:40:40;10.70;;;2.72;;
68432;SDS011;55412;51.350;17.056;2023-03-04T09:43:13;10.50;;;3.22;;
68432;SDS011;55412;51.350;17.056;2023-03-04T09:45:54;10.13;;;2.70;;
68432;SDS011;55412;51.350;17.056;2023-03-04T09:48:24;8.10;;;2.75;;
68432;SDS011;55412;51.350;17.056;2023-03-04T09:56:34;10.25;;;3.33;;
68432;SDS011;55412;51.350;17.056;2023-03-04T09:59:10;5.65;;;2.10;;
68432;SDS011;55412;51.350;17.056;2023-03-04T10:02:17;10.88;;;2.90;;
68432;SDS011;55412;51.350;17.056;2023-03-04T10:05:12;10.03;;;2.57;;
68432;SDS011;55412;51.350;17.056;2023-03-04T10:07:45;9.13;;;2.95;;
68432;SDS011;55412;51.350;17.056;2023-03-04T10:10:23;11.68;;;2.90;;
68432;SDS011;55412;51.350;17.056;2023-03-04T10:13:00;11.27;;;3.10;;
68432;SDS011;55412;51.350;17.056;2023-03-04T10:18:13;7.53;;;3.53;;
68432;SDS011;55412;51.350;17.056;2023-03-04T10:23:48;11.10;;;2.92;;
68432;SDS011;55412;51.350;17.056;2023-03-04T10:26:15;9.50;;;3.10;;
68432;SDS011;55412;51.350;17.056;2023-03-04T10:28:45;7.38;;;2.72;;
68432;SDS011;55412;51.350;17.056;2023-03-04T10:33:47;6.32;;;2.58;;
68432;SDS011;55412;51.350;17.056;2023-03-04T10:41:45;5.60;;;1.63;;
68432;SDS011;55412;51.350;17.056;2023-03-04T10:44:24;8.70;;;1.67;;
68432;SDS011;55412;51.350;17.056;2023-03-04T10:46:52;5.63;;;1.65;;
68432;SDS011;55412;51.350;17.056;2023-03-04T10:49:20;7.78;;;1.83;;
68432;SDS011;55412;51.350;17.056;2023-03-04T10:54:51;6.60;;;2.42;;
68432;SDS011;55412;51.350;17.056;2023-03-04T11:00:18;8.07;;;2.42;;
68432;SDS011;55412;51.350;17.056;2023-03-04T11:03:13;6.85;;;2.13;;
68432;SDS011;55412;51.350;17.056;2023-03-04T11:05:53;5.90;;;2.33;;
68432;SDS011;55412;51.350;17.056;2023-03-04T11:08:55;8.27;;;3.00;;
68432;SDS011;55412;51.350;17.056;2023-03-04T11:13:59;9.13;;;2.17;;
68432;SDS011;55412;51.350;17.056;2023-03-04T11:16:36;5.90;;;1.88;;
68432;SDS011;55412;51.350;17.056;2023-03-04T11:19:10;7.85;;;1.77;;
68432;SDS011;55412;51.350;17.056;2023-03-04T11:21:40;8.23;;;2.75;;
68432;SDS011;55412;51.350;17.056;2023-03-04T11:24:13;7.10;;;2.07;;
68432;SDS011;55412;51.350;17.056;2023-03-04T11:26:49;8.02;;;2.25;;
68432;SDS011;55412;51.350;17.056;2023-03-04T11:29:29;7.07;;;1.77;;
68432;SDS011;55412;51.350;17.056;2023-03-04T11:38:23;5.57;;;1.80;;
68432;SDS011;55412;51.350;17.056;2023-03-04T11:40:58;7.93;;;2.80;;
68432;SDS011;55412;51.350;17.056;2023-03-04T11:44:01;9.38;;;2.33;;
68432;SDS011;55412;51.350;17.056;2023-03-04T11:52:51;6.73;;;1.60;;
68432;SDS011;55412;51.350;17.056;2023-03-04T12:04:29;5.93;;;1.77;;
68432;SDS011;55412;51.350;17.056;2023-03-04T12:07:21;7.77;;;2.17;;
68432;SDS011;55412;51.350;17.056;2023-03-04T12:13:28;6.13;;;1.63;;
68432;SDS011;55412;51.350;17.056;2023-03-04T12:19:05;5.32;;;1.40;;
68432;SDS011;55412;51.350;17.056;2023-03-04T12:25:07;8.02;;;2.17;;
68432;SDS011;55412;51.350;17.056;2023-03-04T12:27:54;6.97;;;2.05;;
68432;SDS011;55412;51.350;17.056;2023-03-04T12:31:02;8.75;;;2.28;;
68432;SDS011;55412;51.350;17.056;2023-03-04T12:36:59;4.87;;;1.23;;
68432;SDS011;55412;51.350;17.056;2023-03-04T12:46:01;4.80;;;1.48;;
68432;SDS011;55412;51.350;17.056;2023-03-04T12:48:34;5.32;;;1.42;;
68432;SDS011;55412;51.350;17.056;2023-03-04T12:51:47;6.67;;;1.40;;
68432;SDS011;55412;51.350;17.056;2023-03-04T12:57:25;5.55;;;1.40;;
68432;SDS011;55412;51.350;17.056;2023-03-04T13:02:47;5.18;;;1.58;;
68432;SDS011;55412;51.350;17.056;2023-03-04T13:05:52;8.03;;;1.93;;
68432;SDS011;55412;51.350;17.056;2023-03-04T13:14:03;4.32;;;1.20;;
68432;SDS011;55412;51.350;17.056;2023-03-04T13:16:39;9.60;;;1.73;;
68432;SDS011;55412;51.350;17.056;2023-03-04T13:28:15;4.10;;;0.90;;
68432;SDS011;55412;51.350;17.056;2023-03-04T13:31:20;5.25;;;1.70;;
68432;SDS011;55412;51.350;17.056;2023-03-04T13:33:52;5.70;;;1.47;;
68432;SDS011;55412;51.350;17.056;2023-03-04T13:36:29;4.80;;;1.23;;
68432;SDS011;55412;51.350;17.056;2023-03-04T13:41:45;4.97;;;1.70;;
68432;SDS011;55412;51.350;17.056;2023-03-04T13:47:25;5.90;;;2.17;;
68432;SDS011;55412;51.350;17.056;2023-03-04T13:50:27;5.40;;;1.55;;
68432;SDS011;55412;51.350;17.056;2023-03-04T13:59:03;4.72;;;1.55;;
68432;SDS011;55412;51.350;17.056;2023-03-04T14:04:21;6.43;;;1.50;;
68432;SDS011;55412;51.350;17.056;2023-03-04T14:06:53;6.95;;;1.67;;
68432;SDS011;55412;51.350;17.056;2023-03-04T14:09:25;8.23;;;1.88;;
68432;SDS011;55412;51.350;17.056;2023-03-04T14:11:57;4.93;;;1.23;;
68432;SDS011;55412;51.350;17.056;2023-03-04T14:14:50;4.50;;;1.10;;
68432;SDS011;55412;51.350;17.056;2023-03-04T14:17:19;5.25;;;1.30;;
68432;SDS011;55412;51.350;17.056;2023-03-04T14:19:50;4.50;;;1.15;;
68432;SDS011;55412;51.350;17.056;2023-03-04T14:24:56;3.92;;;0.70;;
68432;SDS011;55412;51.350;17.056;2023-03-04T14:27:33;3.83;;;1.10;;
68432;SDS011;55412;51.350;17.056;2023-03-04T14:30:34;4.57;;;1.15;;
68432;SDS011;55412;51.350;17.056;2023-03-04T14:32:54;5.35;;;1.25;;
68432;SDS011;55412;51.350;17.056;2023-03-04T14:35:24;7.15;;;1.80;;
68432;SDS011;55412;51.350;17.056;2023-03-04T14:40:33;8.23;;;1.57;;
68432;SDS011;55412;51.350;17.056;2023-03-04T14:43:13;7.97;;;1.33;;
68432;SDS011;55412;51.350;17.056;2023-03-04T14:45:48;5.72;;;1.33;;
68432;SDS011;55412;51.350;17.056;2023-03-04T14:48:38;5.70;;;1.23;;
68432;SDS011;55412;51.350;17.056;2023-03-04T14:51:05;7.32;;;1.48;;
68432;SDS011;55412;51.350;17.056;2023-03-04T14:53:56;6.23;;;1.70;;
68432;SDS011;55412;51.350;17.056;2023-03-04T14:56:27;7.25;;;1.60;;
68432;SDS011;55412;51.350;17.056;2023-03-04T14:58:56;5.57;;;1.55;;
68432;SDS011;55412;51.350;17.056;2023-03-04T15:01:32;6.43;;;1.42;;
68432;SDS011;55412;51.350;17.056;2023-03-04T15:06:39;6.67;;;1.93;;
68432;SDS011;55412;51.350;17.056;2023-03-04T15:09:19;10.02;;;2.55;;
68432;SDS011;55412;51.350;17.056;2023-03-04T15:11:53;8.90;;;1.67;;
68432;SDS011;55412;51.350;17.056;2023-03-04T15:17:27;8.18;;;1.58;;
68432;SDS011;55412;51.350;17.056;2023-03-04T15:22:35;8.63;;;1.88;;
68432;SDS011;55412;51.350;17.056;2023-03-04T15:25:25;9.60;;;2.63;;
68432;SDS011;55412;51.350;17.056;2023-03-04T15:27:51;8.77;;;2.25;;
68432;SDS011;55412;51.350;17.056;2023-03-04T15:30:22;8.65;;;2.80;;
68432;SDS011;55412;51.350;17.056;2023-03-04T15:32:55;7.20;;;2.33;;
68432;SDS011;55412;51.350;17.056;2023-03-04T15:35:23;4.35;;;1.10;;
68432;SDS011;55412;51.350;17.056;2023-03-04T15:37:54;5.45;;;1.70;;
68432;SDS011;55412;51.350;17.056;2023-03-04T15:40:31;14.45;;;2.33;;
68432;SDS011;55412;51.350;17.056;2023-03-04T15:43:04;5.70;;;1.90;;
68432;SDS011;55412;51.350;17.056;2023-03-04T15:45:36;8.17;;;2.53;;
68432;SDS011;55412;51.350;17.056;2023-03-04T15:48:04;11.88;;;3.13;;
68432;SDS011;55412;51.350;17.056;2023-03-04T15:50:33;11.00;;;2.50;;
68432;SDS011;55412;51.350;17.056;2023-03-04T15:53:03;7.97;;;1.98;;
68432;SDS011;55412;51.350;17.056;2023-03-04T15:55:42;7.90;;;1.90;;
68432;SDS011;55412;51.350;17.056;2023-03-04T15:58:10;9.40;;;2.47;;
68432;SDS011;55412;51.350;17.056;2023-03-04T16:00:37;7.25;;;1.70;;
68432;SDS011;55412;51.350;17.056;2023-03-04T16:03:04;6.57;;;1.90;;
68432;SDS011;55412;51.350;17.056;2023-03-04T16:05:30;9.15;;;2.15;;
68432;SDS011;55412;51.350;17.056;2023-03-04T16:08:00;13.10;;;2.47;;
68432;SDS011;55412;51.350;17.056;2023-03-04T16:10:27;9.17;;;2.20;;
68432;SDS011;55412;51.350;17.056;2023-03-04T16:12:55;6.60;;;1.50;;
68432;SDS011;55412;51.350;17.056;2023-03-04T16:15:22;12.27;;;1.63;;
68432;SDS011;55412;51.350;17.056;2023-03-04T16:17:52;7.35;;;1.42;;
68432;SDS011;55412;51.350;17.056;2023-03-04T16:20:20;8.10;;;1.52;;
68432;SDS011;55412;51.350;17.056;2023-03-04T16:22:52;7.33;;;1.43;;
68432;SDS011;55412;51.350;17.056;2023-03-04T16:25:22;9.50;;;1.17;;
68432;SDS011;55412;51.350;17.056;2023-03-04T16:27:50;6.80;;;1.00;;
68432;SDS011;55412;51.350;17.056;2023-03-04T16:30:19;7.45;;;1.45;;
68432;SDS011;55412;51.350;17.056;2023-03-04T16:32:48;7.03;;;1.55;;
68432;SDS011;55412;51.350;17.056;2023-03-04T16:35:15;7.27;;;1.23;;
68432;SDS011;55412;51.350;17.056;2023-03-04T16:37:43;8.40;;;1.80;;
68432;SDS011;55412;51.350;17.056;2023-03-04T16:40:11;9.85;;;1.40;;
68432;SDS011;55412;51.350;17.056;2023-03-04T16:42:40;8.25;;;1.65;;